createdAt,value
2019-03-08T00:01:49.750Z,3.40
2019-03-08T00:04:19.558Z,5.00
2019-03-08T00:06:49.286Z,5.27
2019-03-08T00:09:18.932Z,2.83
2019-03-08T00:11:48.667Z,5.33
2019-03-08T00:14:18.308Z,5.80
2019-03-08T00:16:48.264Z,3.33
2019-03-08T00:19:17.913Z,3.67
2019-03-08T00:21:47.566Z,4.50
2019-03-08T00:24:17.226Z,3.07
2019-03-08T00:26:46.884Z,3.13
2019-03-08T00:29:16.691Z,4.37
2019-03-08T00:31:46.453Z,2.87
2019-03-08T00:34:16.106Z,8.83
2019-03-08T00:36:45.887Z,5.70
2019-03-08T00:39:15.679Z,6.30
2019-03-08T00:41:45.311Z,3.03
2019-03-08T00:44:14.959Z,5.80
2019-03-08T00:46:44.727Z,3.93
2019-03-08T00:49:14.439Z,6.23
2019-03-08T00:51:44.073Z,3.87
2019-03-08T00:54:13.720Z,4.63
2019-03-08T00:56:43.367Z,4.60
2019-03-08T00:59:16.280Z,6.33
2019-03-08T01:01:45.912Z,3.90
2019-03-08T01:04:15.635Z,4.50
2019-03-08T01:06:45.289Z,2.80
2019-03-08T01:09:14.936Z,4.03
2019-03-08T01:11:45.349Z,8.47
2019-03-08T01:14:15.099Z,3.20
2019-03-08T01:16:46.421Z,4.33
2019-03-08T01:19:16.064Z,3.43
2019-03-08T01:21:45.721Z,5.03
2019-03-08T01:24:15.724Z,3.70
2019-03-08T01:26:45.363Z,3.27
2019-03-08T01:29:15.156Z,6.83
2019-03-08T01:31:44.799Z,2.67
2019-03-08T01:34:14.535Z,5.20
2019-03-08T01:36:44.485Z,5.30
2019-03-08T01:39:14.204Z,6.73
2019-03-08T01:41:43.918Z,1.93
2019-03-08T01:44:13.679Z,2.37
2019-03-08T01:46:43.319Z,1.47
2019-03-08T01:49:12.967Z,4.30
2019-03-08T01:51:42.684Z,1.23
2019-03-08T01:54:12.340Z,1.90
2019-03-08T01:56:42.937Z,1.30
2019-03-08T01:59:12.803Z,2.97
2019-03-08T02:01:42.592Z,3.00
2019-03-08T02:04:12.641Z,3.23
2019-03-08T02:06:42.324Z,2.50
2019-03-08T02:09:11.966Z,3.83
2019-03-08T02:11:41.767Z,2.07
2019-03-08T02:14:11.425Z,2.30
2019-03-08T02:16:41.505Z,1.23
2019-03-08T02:19:11.155Z,2.60
2019-03-08T02:21:41.827Z,5.30
2019-03-08T02:24:12.626Z,5.20
2019-03-08T02:26:42.295Z,5.37
2019-03-08T02:29:11.935Z,2.80
2019-03-08T02:31:41.663Z,3.83
2019-03-08T02:34:11.318Z,2.23
2019-03-08T02:36:41.043Z,4.30
2019-03-08T02:39:10.764Z,2.77
2019-03-08T02:41:41.381Z,2.73
2019-03-08T02:44:11.107Z,3.37
2019-03-08T02:46:40.851Z,5.30
2019-03-08T02:49:10.580Z,6.87
2019-03-08T02:51:40.293Z,3.47
2019-03-08T02:54:10.014Z,5.20
2019-03-08T02:56:40.639Z,5.07
2019-03-08T02:59:10.314Z,4.60
2019-03-08T03:01:39.975Z,4.50
2019-03-08T03:04:09.624Z,3.20
2019-03-08T03:06:39.348Z,5.13
2019-03-08T03:09:09.235Z,2.63
2019-03-08T03:11:40.561Z,4.17
2019-03-08T03:14:10.284Z,3.07
2019-03-08T03:16:39.936Z,4.43
2019-03-08T03:19:09.585Z,4.30
2019-03-08T03:21:39.244Z,4.30
2019-03-08T03:24:08.965Z,4.43
2019-03-08T03:26:38.778Z,5.93
2019-03-08T03:29:08.415Z,9.83
2019-03-08T03:31:38.079Z,9.77
2019-03-08T03:34:07.739Z,5.47
2019-03-08T03:36:37.469Z,6.30
2019-03-08T03:39:07.655Z,4.77
2019-03-08T03:41:37.314Z,6.83
2019-03-08T03:44:10.087Z,8.70
2019-03-08T03:46:39.867Z,8.73
2019-03-08T03:49:09.518Z,8.10
2019-03-08T03:51:39.184Z,9.63
2019-03-08T03:54:08.841Z,10.33
2019-03-08T03:56:38.507Z,7.43
2019-03-08T03:59:08.175Z,8.07
2019-03-08T04:01:42.247Z,8.10
2019-03-08T04:04:12.052Z,11.80
2019-03-08T04:06:41.710Z,14.80
2019-03-08T04:09:12.683Z,12.83
2019-03-08T04:11:42.409Z,11.23
2019-03-08T04:14:12.706Z,12.77
2019-03-08T04:16:42.554Z,11.67
2019-03-08T04:19:12.316Z,10.53
2019-03-08T04:21:42.117Z,11.83
2019-03-08T04:24:11.780Z,10.40
2019-03-08T04:26:41.437Z,16.20
2019-03-08T04:29:11.364Z,12.00
2019-03-08T04:31:41.012Z,11.27
2019-03-08T04:34:10.676Z,18.03
2019-03-08T04:36:40.331Z,15.93
2019-03-08T04:39:10.065Z,10.43
2019-03-08T04:41:39.724Z,16.13
2019-03-08T04:44:09.455Z,9.40
2019-03-08T04:46:39.117Z,20.63
2019-03-08T04:49:08.800Z,12.03
2019-03-08T04:51:38.528Z,14.63
2019-03-08T04:54:08.185Z,18.20
2019-03-08T04:56:38.192Z,13.23
2019-03-08T04:59:07.847Z,15.67
2019-03-08T05:01:37.504Z,10.57
2019-03-08T05:04:07.162Z,11.63
2019-03-08T05:06:36.820Z,15.40
2019-03-08T05:09:07.444Z,20.60
2019-03-08T05:11:37.234Z,18.60
2019-03-08T05:14:06.904Z,10.87
2019-03-08T05:16:36.550Z,18.50
2019-03-08T05:19:06.287Z,13.83
2019-03-08T05:21:35.945Z,18.47
2019-03-08T05:24:05.995Z,15.13
2019-03-08T05:26:35.660Z,17.20
2019-03-08T05:29:05.391Z,15.20
2019-03-08T05:31:35.133Z,20.00
2019-03-08T05:34:04.944Z,13.30
2019-03-08T05:36:34.595Z,15.67
2019-03-08T05:39:07.989Z,15.27
2019-03-08T05:41:37.648Z,13.80
2019-03-08T05:44:07.306Z,11.37
2019-03-08T05:46:36.965Z,18.27
2019-03-08T05:49:06.704Z,10.13
2019-03-08T05:51:36.623Z,10.90
2019-03-08T05:54:07.280Z,23.83
2019-03-08T05:56:37.095Z,14.67
2019-03-08T05:59:06.760Z,11.00
2019-03-08T06:01:36.516Z,15.93
2019-03-08T06:04:06.212Z,14.00
2019-03-08T06:06:35.875Z,21.70
2019-03-08T06:09:07.960Z,26.20
2019-03-08T06:11:37.616Z,20.17
2019-03-08T06:14:07.280Z,26.87
2019-03-08T06:16:37.909Z,22.87
2019-03-08T06:19:07.882Z,19.57
2019-03-08T06:21:37.538Z,13.27
2019-03-08T06:24:07.839Z,14.70
2019-03-08T06:26:37.509Z,20.20
2019-03-08T06:29:07.171Z,15.40
2019-03-08T06:31:36.959Z,18.37
2019-03-08T06:34:06.626Z,19.13
2019-03-08T06:36:36.297Z,25.33
2019-03-08T06:39:07.480Z,19.97
2019-03-08T06:41:37.131Z,21.70
2019-03-08T06:44:06.880Z,17.63
2019-03-08T06:46:37.004Z,19.47
2019-03-08T06:49:06.668Z,16.07
2019-03-08T06:51:36.391Z,16.37
2019-03-08T06:54:06.055Z,21.17
2019-03-08T06:56:35.716Z,24.67
2019-03-08T06:59:30.655Z,25.77
2019-03-08T07:02:00.396Z,22.97
2019-03-08T07:04:30.062Z,18.27
2019-03-08T07:07:00.791Z,14.50
2019-03-08T07:09:30.740Z,17.83
2019-03-08T07:12:00.387Z,19.90
2019-03-08T07:14:30.054Z,23.87
2019-03-08T07:16:59.712Z,36.30
2019-03-08T07:19:29.374Z,24.33
2019-03-08T07:22:33.608Z,23.00
2019-03-08T07:25:37.679Z,25.63
2019-03-08T07:28:18.669Z,23.73
2019-03-08T07:31:06.231Z,20.73
2019-03-08T07:34:04.672Z,27.00
2019-03-08T07:36:49.836Z,23.23
2019-03-08T07:39:37.817Z,21.33
2019-03-08T07:42:25.513Z,21.57
2019-03-08T07:45:29.370Z,20.10
2019-03-08T07:48:30.380Z,25.70
2019-03-08T07:51:28.088Z,21.03
2019-03-08T07:54:03.073Z,14.67
2019-03-08T07:57:01.212Z,11.73
2019-03-08T07:59:53.794Z,10.10
2019-03-08T08:02:38.572Z,9.97
2019-03-08T08:05:27.406Z,13.87
2019-03-08T08:08:21.951Z,11.20
2019-03-08T08:11:00.303Z,18.83
2019-03-08T08:13:56.132Z,19.67
2019-03-08T08:16:50.801Z,12.77
2019-03-08T08:19:31.701Z,10.73
2019-03-08T08:22:12.288Z,13.80
2019-03-08T08:25:01.264Z,8.30
2019-03-08T08:27:53.021Z,9.70
2019-03-08T08:30:50.894Z,9.67
2019-03-08T08:33:47.219Z,12.30
2019-03-08T08:36:44.849Z,13.07
2019-03-08T08:39:41.051Z,14.00
2019-03-08T08:42:45.213Z,11.03
2019-03-08T08:45:36.968Z,19.40
2019-03-08T08:48:15.017Z,11.67
2019-03-08T08:50:52.763Z,12.58
2019-03-08T08:53:47.964Z,17.77
2019-03-08T08:56:36.748Z,18.30
2019-03-08T08:59:28.435Z,12.30
2019-03-08T09:02:10.237Z,16.50
2019-03-08T09:04:49.763Z,18.83
2019-03-08T09:07:34.944Z,19.90
2019-03-08T09:10:27.081Z,12.23
2019-03-08T09:13:16.848Z,19.32
2019-03-08T09:16:02.020Z,16.30
2019-03-08T09:19:01.076Z,20.43
2019-03-08T09:21:53.076Z,13.50
2019-03-08T09:24:42.103Z,11.97
2019-03-08T09:27:23.878Z,15.28
2019-03-08T09:29:59.450Z,15.28
2019-03-08T09:32:37.137Z,15.53
2019-03-08T09:35:22.307Z,15.88
2019-03-08T09:38:03.589Z,13.05
2019-03-08T09:40:48.323Z,10.45
2019-03-08T09:43:32.991Z,11.22
2019-03-08T09:46:30.961Z,12.50
2019-03-08T09:49:09.989Z,12.15
2019-03-08T09:51:45.536Z,9.50
2019-03-08T09:54:37.968Z,11.30
2019-03-08T09:57:29.552Z,11.63
2019-03-08T10:00:17.167Z,12.78
2019-03-08T10:02:59.979Z,21.62
2019-03-08T10:05:43.363Z,14.23
2019-03-08T10:08:21.256Z,12.13
2019-03-08T10:11:06.028Z,10.95
2019-03-08T10:13:42.193Z,8.15
2019-03-08T10:16:25.221Z,12.93
2019-03-08T10:19:11.610Z,14.65
2019-03-08T10:21:53.283Z,13.05
2019-03-08T10:24:41.723Z,9.38
2019-03-08T10:27:37.795Z,11.08
2019-03-08T10:30:22.768Z,14.58
2019-03-08T10:33:08.000Z,13.28
2019-03-08T10:35:44.310Z,10.00
2019-03-08T10:38:29.229Z,11.57
2019-03-08T10:41:24.337Z,9.48
2019-03-08T10:44:11.502Z,9.15
2019-03-08T10:46:57.224Z,10.32
2019-03-08T10:49:54.734Z,6.28
2019-03-08T10:52:27.976Z,8.95
2019-03-08T10:55:13.440Z,10.53
2019-03-08T10:58:11.206Z,11.57
2019-03-08T11:00:59.177Z,12.40
2019-03-08T11:03:50.976Z,9.23
2019-03-08T11:06:32.253Z,9.03
2019-03-08T11:09:21.039Z,8.53
2019-03-08T11:12:09.144Z,10.10
2019-03-08T11:14:59.520Z,10.78
2019-03-08T11:17:54.078Z,9.63
2019-03-08T11:20:41.481Z,8.50
2019-03-08T11:23:20.971Z,7.50
2019-03-08T11:26:21.771Z,9.47
2019-03-08T11:29:11.649Z,8.70
2019-03-08T11:31:59.487Z,14.30
2019-03-08T11:34:40.188Z,7.22
2019-03-08T11:37:17.703Z,9.40
2019-03-08T11:40:06.444Z,8.75
2019-03-08T11:42:54.305Z,8.58
2019-03-08T11:45:32.564Z,8.03
2019-03-08T11:48:30.615Z,3.83
2019-03-08T11:51:14.583Z,4.57
2019-03-08T11:53:56.587Z,10.45
2019-03-08T11:57:01.927Z,5.92
2019-03-08T11:59:52.007Z,10.37
2019-03-08T12:02:37.388Z,6.58
2019-03-08T12:05:18.071Z,5.50
2019-03-08T12:08:05.537Z,13.07
2019-03-08T12:10:52.988Z,7.80
2019-03-08T12:13:32.744Z,5.00
2019-03-08T12:16:24.633Z,8.43
2019-03-08T12:19:05.337Z,13.40
2019-03-08T12:21:44.138Z,8.57
2019-03-08T12:24:44.936Z,4.43
2019-03-08T12:27:36.504Z,7.57
2019-03-08T12:30:25.392Z,10.40
2019-03-08T12:33:04.285Z,12.05
2019-03-08T12:35:56.041Z,9.13
2019-03-08T12:38:37.084Z,10.45
2019-03-08T12:41:27.468Z,9.63
2019-03-08T12:44:13.775Z,15.18
2019-03-08T12:46:51.764Z,7.20
2019-03-08T12:49:38.478Z,6.25
2019-03-08T12:52:23.604Z,9.18
2019-03-08T12:55:12.375Z,15.95
2019-03-08T12:57:59.903Z,10.63
2019-03-08T13:00:39.442Z,6.55
2019-03-08T13:03:46.633Z,9.95
2019-03-08T13:06:33.987Z,10.55
2019-03-08T13:09:27.307Z,7.60
2019-03-08T13:11:56.970Z,8.53
2019-03-08T13:14:26.635Z,10.30
2019-03-08T13:16:56.303Z,9.40
2019-03-08T13:19:26.047Z,8.75
2019-03-08T13:21:56.084Z,9.95
2019-03-08T13:24:25.752Z,10.13
2019-03-08T13:26:55.556Z,9.85
2019-03-08T13:29:25.321Z,9.90
2019-03-08T13:31:55.050Z,4.87
2019-03-08T13:34:24.845Z,5.70
2019-03-08T13:36:54.501Z,5.65
2019-03-08T13:39:25.244Z,4.73
2019-03-08T13:41:55.004Z,6.12
2019-03-08T13:44:24.773Z,7.33
2019-03-08T13:46:54.438Z,7.00
2019-03-08T13:49:24.367Z,6.90
2019-03-08T13:51:54.012Z,4.03
2019-03-08T13:54:23.692Z,3.37
2019-03-08T13:56:53.335Z,5.60
2019-03-08T13:59:23.015Z,5.05
2019-03-08T14:01:52.771Z,9.55
2019-03-08T14:04:22.444Z,6.87
2019-03-08T14:06:52.116Z,10.27
2019-03-08T14:09:21.865Z,6.22
2019-03-08T14:11:51.523Z,9.68
2019-03-08T14:14:21.200Z,7.42
2019-03-08T14:16:50.876Z,6.33
2019-03-08T14:19:20.545Z,8.00
2019-03-08T14:21:50.212Z,7.22
2019-03-08T14:24:19.905Z,8.08
2019-03-08T14:26:49.622Z,6.42
2019-03-08T14:29:22.267Z,7.33
2019-03-08T14:31:54.802Z,7.07
2019-03-08T14:34:24.482Z,11.65
2019-03-08T14:36:54.212Z,4.33
2019-03-08T14:39:23.887Z,6.93
2019-03-08T14:42:07.571Z,3.83
2019-03-08T14:45:07.788Z,9.03
2019-03-08T14:47:39.362Z,5.55
2019-03-08T14:50:11.191Z,12.70
2019-03-08T14:52:40.912Z,8.83
2019-03-08T14:55:13.041Z,8.13
2019-03-08T14:57:42.849Z,7.60
2019-03-08T15:00:18.717Z,4.60
2019-03-08T15:02:48.673Z,5.43
2019-03-08T15:05:19.224Z,2.80
2019-03-08T15:07:50.022Z,6.60
2019-03-08T15:10:20.360Z,7.30
2019-03-08T15:12:50.096Z,12.98
2019-03-08T15:15:19.913Z,7.20
2019-03-08T15:17:53.377Z,7.58
2019-03-08T15:20:21.171Z,6.00
2019-03-08T15:22:51.201Z,5.70
2019-03-08T15:25:21.027Z,4.90
2019-03-08T15:27:51.680Z,4.27
2019-03-08T15:30:22.492Z,13.05
2019-03-08T15:32:52.154Z,7.50
2019-03-08T15:35:21.922Z,8.90
2019-03-08T15:37:51.667Z,5.30
2019-03-08T15:40:21.596Z,9.57
2019-03-08T15:42:51.324Z,14.00
2019-03-08T15:45:21.455Z,4.50
2019-03-08T15:47:51.139Z,7.37
2019-03-08T15:50:20.875Z,9.70
2019-03-08T15:52:51.483Z,6.67
2019-03-08T15:55:22.552Z,7.87
2019-03-08T15:57:52.275Z,6.72
2019-03-08T16:00:22.137Z,3.43
2019-03-08T16:02:54.402Z,7.12
2019-03-08T16:05:23.960Z,5.10
2019-03-08T16:07:57.701Z,4.78
2019-03-08T16:10:27.160Z,5.90
2019-03-08T16:12:56.887Z,4.47
2019-03-08T16:15:26.638Z,5.73
2019-03-08T16:17:56.322Z,2.93
2019-03-08T16:20:25.982Z,5.70
2019-03-08T16:22:55.989Z,5.73
2019-03-08T16:25:25.644Z,6.00
2019-03-08T16:27:55.443Z,6.08
2019-03-08T16:30:30.417Z,7.22
2019-03-08T16:33:06.951Z,6.45
2019-03-08T16:35:58.512Z,2.97
2019-03-08T16:38:34.329Z,4.45
2019-03-08T16:41:26.108Z,5.23
2019-03-08T16:44:08.808Z,6.27
2019-03-08T16:46:59.483Z,4.40
2019-03-08T16:49:56.860Z,4.55
2019-03-08T16:52:44.127Z,3.13
2019-03-08T16:55:43.656Z,5.35
2019-03-08T16:58:44.833Z,4.83
2019-03-08T17:01:46.018Z,6.70
2019-03-08T17:04:31.044Z,3.05
2019-03-08T17:07:38.935Z,2.57
2019-03-08T17:10:18.182Z,3.70
2019-03-08T17:13:25.785Z,8.23
2019-03-08T17:16:12.998Z,3.20
2019-03-08T17:19:13.934Z,2.52
2019-03-08T17:21:51.732Z,5.70
2019-03-08T17:24:31.663Z,4.23
2019-03-08T17:27:11.624Z,8.40
2019-03-08T17:30:00.556Z,4.50
2019-03-08T17:32:41.862Z,4.80
2019-03-08T17:35:25.399Z,5.43
2019-03-08T17:38:01.740Z,5.03
2019-03-08T17:40:49.428Z,5.93
2019-03-08T17:43:29.839Z,4.27
2019-03-08T17:46:17.323Z,4.07
2019-03-08T17:49:00.789Z,11.37
2019-03-08T17:51:48.684Z,4.83
2019-03-08T17:54:43.255Z,3.77
2019-03-08T17:57:32.376Z,7.13
2019-03-08T18:00:10.360Z,3.83
2019-03-08T18:02:49.032Z,6.90
2019-03-08T18:05:44.286Z,8.10
2019-03-08T18:08:29.063Z,4.73
2019-03-08T18:11:16.499Z,7.45
2019-03-08T18:13:52.840Z,9.03
2019-03-08T18:16:41.589Z,7.37
2019-03-08T18:19:29.232Z,11.68
2019-03-08T18:22:30.360Z,6.63
2019-03-08T18:25:09.903Z,9.47
2019-03-08T18:27:58.660Z,5.57
2019-03-08T18:30:50.500Z,8.25
2019-03-08T18:33:25.111Z,7.23
2019-03-08T18:36:23.107Z,10.33
2019-03-08T18:39:13.680Z,9.63
2019-03-08T18:41:59.290Z,8.77
2019-03-08T18:44:48.264Z,9.93
2019-03-08T18:47:40.751Z,12.63
2019-03-08T18:50:44.718Z,10.03
2019-03-08T18:53:33.483Z,7.17
2019-03-08T18:56:21.079Z,6.97
2019-03-08T18:59:11.641Z,6.03
2019-03-08T19:02:12.490Z,6.63
2019-03-08T19:04:54.609Z,5.03
2019-03-08T19:07:46.465Z,7.53
2019-03-08T19:10:30.079Z,8.43
2019-03-08T19:13:05.991Z,7.87
2019-03-08T19:15:53.763Z,10.57
2019-03-08T19:18:31.610Z,10.03
2019-03-08T19:21:26.555Z,6.12
2019-03-08T19:24:02.262Z,7.20
2019-03-08T19:26:57.985Z,4.33
2019-03-08T19:29:48.932Z,8.57
2019-03-08T19:32:43.840Z,14.37
2019-03-08T19:35:42.008Z,7.57
2019-03-08T19:38:29.718Z,8.33
2019-03-08T19:41:07.659Z,7.80
2019-03-08T19:44:02.585Z,7.37
2019-03-08T19:47:02.718Z,5.20
2019-03-08T19:49:51.551Z,7.93
2019-03-08T19:52:43.544Z,4.83
2019-03-08T19:55:20.145Z,7.33
2019-03-08T19:58:21.296Z,8.37
2019-03-08T20:01:00.403Z,9.07
2019-03-08T20:03:46.112Z,5.73
2019-03-08T20:06:34.020Z,5.70
2019-03-08T20:09:19.132Z,4.70
2019-03-08T20:11:58.257Z,4.90
2019-03-08T20:14:45.784Z,5.17
2019-03-08T20:17:30.497Z,7.20
2019-03-08T20:20:22.413Z,6.30
2019-03-08T20:22:58.511Z,8.93
2019-03-08T20:25:40.803Z,7.43
2019-03-08T20:28:28.443Z,6.27
2019-03-08T20:31:11.347Z,10.63
2019-03-08T20:33:47.820Z,10.47
2019-03-08T20:36:42.549Z,7.57
2019-03-08T20:39:31.202Z,8.37
2019-03-08T20:42:26.043Z,9.20
2019-03-08T20:45:04.204Z,8.27
2019-03-08T20:47:35.539Z,9.90
2019-03-08T20:50:07.027Z,9.63
2019-03-08T20:52:38.339Z,6.47
2019-03-08T20:55:08.760Z,7.27
2019-03-08T20:57:38.486Z,7.03
2019-03-08T21:00:09.519Z,12.23
2019-03-08T21:02:39.637Z,10.30
2019-03-08T21:05:09.502Z,10.10
2019-03-08T21:07:39.395Z,14.87
2019-03-08T21:10:10.530Z,11.93
2019-03-08T21:12:40.836Z,10.37
2019-03-08T21:15:11.430Z,10.57
2019-03-08T21:17:41.720Z,8.53
2019-03-08T21:20:11.991Z,8.67
2019-03-08T21:22:41.774Z,7.10
2019-03-08T21:25:12.007Z,8.17
2019-03-08T21:27:41.745Z,4.63
2019-03-08T21:30:14.628Z,6.67
2019-03-08T21:32:44.585Z,13.10
2019-03-08T21:35:14.392Z,5.37
2019-03-08T21:37:45.668Z,10.60
2019-03-08T21:40:15.548Z,6.63
2019-03-08T21:42:45.332Z,5.97
2019-03-08T21:45:15.059Z,8.57
2019-03-08T21:47:45.043Z,7.83
2019-03-08T21:50:15.180Z,6.53
2019-03-08T21:52:44.912Z,6.47
2019-03-08T21:55:14.653Z,5.40
2019-03-08T21:57:44.424Z,10.53
2019-03-08T22:00:16.216Z,6.60
2019-03-08T22:02:46.236Z,4.53
2019-03-08T22:05:20.670Z,9.43
2019-03-08T22:07:50.417Z,11.60
2019-03-08T22:10:29.239Z,7.83
2019-03-08T22:12:58.975Z,4.70
2019-03-08T22:15:29.891Z,9.83
2019-03-08T22:17:59.621Z,5.80
2019-03-08T22:20:30.394Z,6.33
2019-03-08T22:23:00.055Z,8.60
2019-03-08T22:25:29.779Z,7.07
2019-03-08T22:27:59.421Z,6.43
2019-03-08T22:30:29.182Z,5.93
2019-03-08T22:32:58.896Z,8.47
2019-03-08T22:35:28.560Z,10.40
2019-03-08T22:37:58.214Z,10.30
2019-03-08T22:40:27.940Z,5.73
2019-03-08T22:42:57.680Z,7.07
2019-03-08T22:45:27.436Z,8.83
2019-03-08T22:47:57.084Z,7.20
2019-03-08T22:50:26.747Z,15.73
2019-03-08T22:52:56.393Z,8.37
2019-03-08T22:55:26.134Z,11.53
2019-03-08T22:57:55.783Z,8.10
2019-03-08T23:00:50.789Z,7.53
2019-03-08T23:03:22.624Z,13.57
2019-03-08T23:05:52.283Z,8.10
2019-03-08T23:08:23.253Z,12.63
2019-03-08T23:10:53.018Z,14.47
2019-03-08T23:13:22.824Z,11.70
2019-03-08T23:15:52.644Z,9.53
2019-03-08T23:18:22.344Z,11.77
2019-03-08T23:20:52.081Z,8.87
2019-03-08T23:23:21.879Z,8.37
2019-03-08T23:25:51.632Z,9.90
2019-03-08T23:28:43.667Z,9.03
2019-03-08T23:31:22.131Z,5.97
2019-03-08T23:33:51.884Z,10.57
2019-03-08T23:36:22.623Z,7.00
2019-03-08T23:38:52.317Z,9.13
2019-03-08T23:41:22.356Z,9.17
2019-03-08T23:43:52.035Z,9.57
2019-03-08T23:46:21.694Z,10.13
2019-03-08T23:48:51.416Z,9.30
2019-03-08T23:51:21.162Z,7.40
2019-03-08T23:53:50.899Z,6.50
2019-03-08T23:56:20.597Z,9.37
2019-03-08T23:58:50.256Z,3.63
